createdAt,value
2022-07-29T00:00:16.653Z,81.41
2022-07-29T00:01:49.344Z,81.19
2022-07-29T00:03:21.470Z,81.47
2022-07-29T00:04:53.728Z,81.03
2022-07-29T00:06:25.755Z,81.19
2022-07-29T00:07:57.956Z,81.25
2022-07-29T00:09:29.998Z,81.50
2022-07-29T00:11:02.047Z,81.88
2022-07-29T00:12:34.078Z,81.92
2022-07-29T00:14:06.810Z,82.36
2022-07-29T00:15:39.013Z,82.29
2022-07-29T00:17:11.138Z,82.21
2022-07-29T00:18:43.527Z,82.15
2022-07-29T00:20:15.599Z,82.20
2022-07-29T00:21:47.721Z,82.04
2022-07-29T00:23:19.793Z,82.28
2022-07-29T00:24:52.046Z,82.08
2022-07-29T00:26:24.110Z,81.80
2022-07-29T00:27:56.112Z,81.61
2022-07-29T00:29:35.512Z,81.55
2022-07-29T00:31:07.851Z,81.22
2022-07-29T00:32:39.918Z,81.24
2022-07-29T00:34:32.020Z,81.42
2022-07-29T00:36:04.441Z,81.38
2022-07-29T00:37:36.690Z,81.65
2022-07-29T00:39:08.772Z,81.49
2022-07-29T00:40:43.876Z,81.27
2022-07-29T00:42:17.656Z,81.72
2022-07-29T00:43:50.000Z,81.77
2022-07-29T00:45:23.365Z,81.58
2022-07-29T00:46:55.464Z,81.35
2022-07-29T00:48:27.664Z,81.52
2022-07-29T00:49:59.749Z,81.62
2022-07-29T00:51:31.992Z,81.50
2022-07-29T00:53:05.765Z,81.45
2022-07-29T00:54:44.275Z,81.18
2022-07-29T00:56:17.045Z,81.59
2022-07-29T00:57:49.215Z,81.58
2022-07-29T00:59:21.302Z,81.47
2022-07-29T01:00:53.813Z,81.52
2022-07-29T01:02:25.929Z,81.45
2022-07-29T01:03:58.024Z,81.40
2022-07-29T01:05:48.137Z,81.75
2022-07-29T01:07:24.644Z,82.06
2022-07-29T01:08:56.982Z,81.93
2022-07-29T01:10:29.479Z,81.87
2022-07-29T01:12:01.896Z,82.21
2022-07-29T01:13:34.621Z,82.28
2022-07-29T01:15:08.224Z,82.29
2022-07-29T01:17:13.924Z,82.24
2022-07-29T01:18:51.250Z,82.56
2022-07-29T01:20:31.264Z,83.08
2022-07-29T01:22:32.769Z,82.69
2022-07-29T01:24:29.050Z,83.04
2022-07-29T01:26:22.545Z,82.88
2022-07-29T01:28:16.937Z,82.73
2022-07-29T01:29:57.000Z,82.74
2022-07-29T01:31:58.460Z,82.89
2022-07-29T01:33:52.070Z,82.71
2022-07-29T01:35:35.668Z,82.77
2022-07-29T01:37:10.539Z,83.03
2022-07-29T01:38:44.666Z,82.96
2022-07-29T01:40:30.214Z,83.08
2022-07-29T01:42:22.582Z,82.60
2022-07-29T01:44:01.765Z,82.97
2022-07-29T01:45:54.872Z,82.89
2022-07-29T01:47:52.585Z,83.06
2022-07-29T01:49:30.412Z,82.60
2022-07-29T01:51:21.253Z,82.58
2022-07-29T01:53:01.755Z,82.26
2022-07-29T01:55:00.660Z,82.30
2022-07-29T01:56:35.025Z,82.63
2022-07-29T01:58:07.742Z,82.90
2022-07-29T01:59:40.391Z,83.15
2022-07-29T02:01:14.143Z,83.00
2022-07-29T02:02:48.321Z,82.96
2022-07-29T02:04:29.202Z,83.13
2022-07-29T02:07:42.006Z,83.39
2022-07-29T02:09:15.145Z,83.17
2022-07-29T02:10:49.046Z,83.00
2022-07-29T02:12:22.244Z,82.79
2022-07-29T02:13:55.607Z,82.74
2022-07-29T02:15:29.034Z,82.61
2022-07-29T02:17:02.150Z,82.99
2022-07-29T02:18:35.016Z,83.10
2022-07-29T02:20:08.484Z,83.01
2022-07-29T02:21:42.200Z,83.12
2022-07-29T02:23:16.462Z,82.80
2022-07-29T02:24:49.143Z,82.86
2022-07-29T02:26:23.432Z,82.61
2022-07-29T02:27:55.739Z,82.43
2022-07-29T02:29:29.431Z,82.19
2022-07-29T02:31:03.786Z,82.16
2022-07-29T02:32:37.209Z,82.41
2022-07-29T02:34:13.659Z,82.40
2022-07-29T02:35:48.071Z,82.42
2022-07-29T02:37:20.247Z,82.64
2022-07-29T02:38:52.947Z,83.00
2022-07-29T02:40:32.400Z,83.01
2022-07-29T02:42:09.670Z,82.69
2022-07-29T02:43:43.705Z,82.56
2022-07-29T02:45:15.763Z,82.85
2022-07-29T02:47:03.899Z,83.43
2022-07-29T02:49:18.184Z,83.34
2022-07-29T02:50:52.179Z,83.16
2022-07-29T02:52:59.893Z,83.26
2022-07-29T02:54:40.793Z,83.34
2022-07-29T02:56:15.502Z,83.24
2022-07-29T02:58:02.425Z,83.44
2022-07-29T02:59:36.138Z,83.62
2022-07-29T03:01:21.840Z,83.51
2022-07-29T03:02:55.421Z,83.72
2022-07-29T03:04:29.860Z,83.96
2022-07-29T03:06:03.146Z,83.91
2022-07-29T03:07:35.459Z,83.68
2022-07-29T03:09:12.893Z,84.05
2022-07-29T03:10:46.881Z,83.63
2022-07-29T03:12:18.855Z,83.50
2022-07-29T03:13:51.377Z,83.88
2022-07-29T03:15:24.778Z,83.99
2022-07-29T03:16:56.975Z,84.26
2022-07-29T03:18:29.095Z,84.09
2022-07-29T03:20:01.502Z,84.23
2022-07-29T03:21:33.784Z,83.99
2022-07-29T03:23:06.064Z,83.99
2022-07-29T03:24:38.432Z,84.38
2022-07-29T03:26:10.551Z,84.39
2022-07-29T03:27:43.428Z,84.27
2022-07-29T03:29:15.450Z,84.31
2022-07-29T03:30:48.222Z,84.45
2022-07-29T03:32:23.723Z,84.35
2022-07-29T03:33:56.169Z,84.73
2022-07-29T03:35:28.336Z,84.87
2022-07-29T03:37:00.344Z,84.70
2022-07-29T03:38:35.317Z,85.10
2022-07-29T03:40:09.950Z,85.22
2022-07-29T03:41:43.293Z,85.21
2022-07-29T03:43:15.202Z,84.96
2022-07-29T03:44:49.237Z,85.32
2022-07-29T03:46:23.703Z,85.18
2022-07-29T03:48:00.841Z,85.56
2022-07-29T03:49:34.287Z,85.64
2022-07-29T03:51:06.845Z,86.07
2022-07-29T03:52:39.577Z,86.60
2022-07-29T03:54:12.366Z,86.65
2022-07-29T03:55:50.210Z,86.45
2022-07-29T03:57:25.573Z,86.72
2022-07-29T03:58:57.777Z,86.46
2022-07-29T04:00:30.247Z,86.67
2022-07-29T04:02:04.291Z,86.44
2022-07-29T04:03:36.533Z,86.60
2022-07-29T04:05:14.072Z,86.32
2022-07-29T04:06:48.263Z,86.16
2022-07-29T04:08:20.622Z,85.95
2022-07-29T04:09:52.836Z,86.18
2022-07-29T04:11:24.976Z,86.31
2022-07-29T04:12:57.026Z,86.12
2022-07-29T04:14:29.098Z,86.23
2022-07-29T04:16:01.166Z,85.81
2022-07-29T04:17:33.327Z,85.61
2022-07-29T04:19:05.449Z,85.53
2022-07-29T04:20:37.512Z,85.27
2022-07-29T04:22:09.541Z,85.16
2022-07-29T04:23:52.832Z,85.31
2022-07-29T04:25:25.984Z,85.18
2022-07-29T04:26:58.018Z,84.80
2022-07-29T04:28:30.134Z,84.39
2022-07-29T04:30:02.234Z,84.03
2022-07-29T04:31:34.295Z,83.88
2022-07-29T04:33:08.380Z,83.92
2022-07-29T04:34:40.455Z,84.05
2022-07-29T04:36:28.532Z,84.23
2022-07-29T04:38:02.322Z,84.32
2022-07-29T04:39:34.604Z,84.26
2022-07-29T04:41:08.235Z,84.11
2022-07-29T04:42:46.451Z,83.56
2022-07-29T04:44:20.128Z,83.22
2022-07-29T04:45:52.307Z,83.74
2022-07-29T04:47:24.760Z,83.71
2022-07-29T04:48:57.061Z,84.13
2022-07-29T04:50:29.270Z,84.34
2022-07-29T04:52:01.500Z,84.28
2022-07-29T04:53:33.655Z,84.53
2022-07-29T04:55:06.943Z,84.18
2022-07-29T04:56:38.859Z,84.22
2022-07-29T04:58:11.072Z,83.84
2022-07-29T04:59:43.109Z,83.55
2022-07-29T05:01:17.071Z,83.75
2022-07-29T05:02:49.313Z,83.85
2022-07-29T05:04:21.531Z,84.03
2022-07-29T05:05:53.687Z,83.96
2022-07-29T05:07:25.795Z,84.29
2022-07-29T05:08:57.818Z,84.38
2022-07-29T05:10:30.151Z,84.22
2022-07-29T05:12:02.703Z,83.97
2022-07-29T05:13:46.321Z,83.90
2022-07-29T05:15:19.545Z,83.69
2022-07-29T05:16:52.434Z,83.63
2022-07-29T05:18:26.168Z,83.93
2022-07-29T05:19:58.511Z,83.91
2022-07-29T05:21:30.738Z,84.09
2022-07-29T05:23:04.259Z,83.72
2022-07-29T05:24:36.312Z,83.80
2022-07-29T05:26:08.828Z,83.50
2022-07-29T05:27:41.100Z,83.79
2022-07-29T05:29:43.640Z,83.61
2022-07-29T05:31:05.549Z,83.71
2022-07-29T05:32:37.767Z,83.93
2022-07-29T05:34:09.807Z,84.00
2022-07-29T05:35:41.855Z,83.47
2022-07-29T05:37:16.740Z,82.32
2022-07-29T05:38:49.093Z,81.90
2022-07-29T05:40:21.784Z,81.22
2022-07-29T05:41:54.186Z,81.03
2022-07-29T05:43:27.267Z,80.71
2022-07-29T05:44:59.701Z,80.56
2022-07-29T05:46:32.213Z,80.13
2022-07-29T05:48:05.587Z,79.97
2022-07-29T05:49:38.120Z,80.08
2022-07-29T05:51:10.198Z,80.29
2022-07-29T05:52:42.292Z,80.68
2022-07-29T05:54:14.626Z,81.14
2022-07-29T05:55:47.367Z,81.62
2022-07-29T05:57:23.558Z,81.67
2022-07-29T05:58:55.983Z,81.79
2022-07-29T06:00:28.597Z,81.80
2022-07-29T06:02:01.992Z,82.00
2022-07-29T06:03:34.400Z,81.69
2022-07-29T06:05:07.243Z,82.07
2022-07-29T06:06:47.662Z,81.87
2022-07-29T06:08:20.040Z,82.56
2022-07-29T06:09:52.436Z,82.51
2022-07-29T06:11:24.698Z,82.47
2022-07-29T06:12:57.090Z,82.20
2022-07-29T06:14:29.819Z,80.58
2022-07-29T06:16:02.050Z,79.81
2022-07-29T06:17:34.515Z,79.09
2022-07-29T06:19:06.935Z,78.85
2022-07-29T06:20:39.300Z,78.66
2022-07-29T06:22:11.779Z,77.56
2022-07-29T06:23:44.029Z,78.38
2022-07-29T06:25:16.558Z,78.25
2022-07-29T06:26:49.040Z,77.73
2022-07-29T06:28:21.642Z,78.25
2022-07-29T06:29:53.896Z,78.47
2022-07-29T06:31:26.304Z,78.01
2022-07-29T06:32:58.538Z,78.16
2022-07-29T06:34:30.881Z,77.90
2022-07-29T06:36:06.069Z,78.29
2022-07-29T06:37:38.348Z,79.31
2022-07-29T06:39:11.658Z,78.66
2022-07-29T06:41:04.082Z,78.84
2022-07-29T06:42:36.305Z,78.19
2022-07-29T06:44:08.676Z,77.33
2022-07-29T06:45:42.764Z,76.50
2022-07-29T06:47:15.233Z,76.07
2022-07-29T06:48:49.317Z,75.96
2022-07-29T06:50:23.034Z,75.98
2022-07-29T06:51:57.089Z,76.22
2022-07-29T06:53:30.306Z,76.78
2022-07-29T06:55:02.297Z,76.70
2022-07-29T06:56:40.283Z,76.70
2022-07-29T06:58:13.377Z,76.20
2022-07-29T06:59:45.773Z,74.81
2022-07-29T07:01:18.120Z,74.17
2022-07-29T07:02:50.307Z,72.45
2022-07-29T07:04:22.481Z,71.14
2022-07-29T07:05:55.763Z,72.14
2022-07-29T07:07:28.174Z,70.90
2022-07-29T07:09:00.542Z,70.44
2022-07-29T07:10:34.251Z,71.21
2022-07-29T07:12:06.531Z,71.79
2022-07-29T07:13:38.920Z,72.76
2022-07-29T07:15:11.934Z,71.52
2022-07-29T07:16:44.679Z,70.65
2022-07-29T07:18:18.083Z,69.46
2022-07-29T07:19:50.192Z,69.37
2022-07-29T07:21:22.492Z,67.41
2022-07-29T07:22:55.089Z,67.68
2022-07-29T07:24:27.427Z,67.56
2022-07-29T07:25:59.721Z,67.06
2022-07-29T07:27:32.122Z,68.84
2022-07-29T07:29:04.508Z,68.64
2022-07-29T07:30:37.023Z,68.86
2022-07-29T07:32:09.453Z,68.21
2022-07-29T07:33:41.887Z,68.13
2022-07-29T07:35:14.483Z,67.11
2022-07-29T07:36:46.674Z,67.72
2022-07-29T07:38:19.184Z,66.89
2022-07-29T07:39:52.053Z,68.23
2022-07-29T07:41:24.995Z,68.17
2022-07-29T07:42:57.342Z,68.69
2022-07-29T07:44:29.778Z,68.04
2022-07-29T07:46:02.191Z,67.56
2022-07-29T07:47:34.708Z,64.23
2022-07-29T07:49:06.978Z,61.95
2022-07-29T07:50:39.388Z,62.57
2022-07-29T07:52:11.751Z,61.65
2022-07-29T07:53:46.217Z,60.99
2022-07-29T07:55:19.065Z,60.37
2022-07-29T07:56:53.099Z,60.40
2022-07-29T07:58:25.852Z,61.39
2022-07-29T07:59:58.127Z,61.39
2022-07-29T08:01:50.440Z,60.20
2022-07-29T08:03:24.505Z,60.21
2022-07-29T08:04:56.841Z,60.66
2022-07-29T08:06:29.261Z,60.62
2022-07-29T08:08:01.673Z,61.52
2022-07-29T08:09:34.713Z,59.61
2022-07-29T08:11:09.739Z,58.66
2022-07-29T08:12:42.479Z,60.12
2022-07-29T08:14:15.534Z,59.31
2022-07-29T08:15:48.869Z,58.63
2022-07-29T08:17:21.288Z,58.47
2022-07-29T08:18:58.184Z,58.63
2022-07-29T08:20:31.209Z,59.27
2022-07-29T08:22:03.660Z,60.27
2022-07-29T08:23:51.498Z,58.46
2022-07-29T08:25:26.933Z,58.69
2022-07-29T08:26:59.675Z,59.61
2022-07-29T08:28:32.690Z,60.39
2022-07-29T08:30:05.129Z,58.53
2022-07-29T08:31:38.622Z,59.87
2022-07-29T08:33:11.005Z,59.07
2022-07-29T08:34:43.865Z,59.14
2022-07-29T08:36:16.177Z,60.05
2022-07-29T08:37:49.605Z,59.38
2022-07-29T08:39:22.132Z,59.28
2022-07-29T08:40:54.839Z,58.77
2022-07-29T08:42:27.266Z,59.58
2022-07-29T08:43:59.755Z,58.64
2022-07-29T08:45:44.275Z,58.10
2022-07-29T08:47:19.724Z,55.76
2022-07-29T08:48:52.156Z,56.71
2022-07-29T08:50:24.526Z,56.95
2022-07-29T08:51:57.742Z,56.76
2022-07-29T08:53:30.712Z,57.12
2022-07-29T08:55:03.628Z,55.20
2022-07-29T08:56:36.115Z,56.01
2022-07-29T08:58:08.926Z,56.38
2022-07-29T08:59:44.738Z,56.84
2022-07-29T09:01:19.547Z,57.24
2022-07-29T09:02:58.296Z,57.01
2022-07-29T09:04:35.987Z,56.12
2022-07-29T09:06:08.430Z,56.16
2022-07-29T09:07:41.077Z,57.18
2022-07-29T09:09:15.141Z,53.96
2022-07-29T09:10:47.750Z,53.89
2022-07-29T09:12:28.759Z,53.33
2022-07-29T09:14:02.602Z,54.11
2022-07-29T09:15:35.029Z,52.97
2022-07-29T09:17:08.113Z,52.95
2022-07-29T09:18:45.702Z,52.96
2022-07-29T09:20:20.810Z,53.05
2022-07-29T09:21:59.632Z,52.53
2022-07-29T09:23:32.003Z,50.33
2022-07-29T09:25:07.649Z,50.59
2022-07-29T09:26:45.267Z,51.36
2022-07-29T09:28:18.777Z,50.27
2022-07-29T09:30:28.887Z,48.12
2022-07-29T09:32:08.678Z,48.49
2022-07-29T09:33:43.400Z,49.15
2022-07-29T09:35:21.538Z,48.72
2022-07-29T09:36:56.059Z,48.24
2022-07-29T09:38:28.666Z,48.99
2022-07-29T09:40:01.446Z,49.20
2022-07-29T09:41:56.130Z,47.79
2022-07-29T09:43:28.918Z,48.96
2022-07-29T09:45:01.488Z,46.89
2022-07-29T09:46:34.057Z,46.07
2022-07-29T09:48:24.017Z,46.53
2022-07-29T09:50:00.845Z,47.06
2022-07-29T09:51:38.556Z,46.59
2022-07-29T09:53:12.076Z,46.71
2022-07-29T09:54:47.409Z,47.21
2022-07-29T09:56:19.782Z,48.06
2022-07-29T09:57:52.186Z,48.06
2022-07-29T09:59:27.863Z,48.77
2022-07-29T10:01:00.268Z,50.10
2022-07-29T10:02:33.927Z,47.48
2022-07-29T10:04:06.549Z,48.13
2022-07-29T10:05:38.868Z,47.85
2022-07-29T10:07:11.175Z,46.82
2022-07-29T10:08:43.583Z,46.25
2022-07-29T10:10:27.133Z,44.97
2022-07-29T10:12:10.569Z,44.98
2022-07-29T10:13:43.675Z,44.83
2022-07-29T10:15:17.484Z,45.44
2022-07-29T10:16:50.047Z,45.59
2022-07-29T10:18:22.368Z,46.71
2022-07-29T10:19:54.889Z,45.30
2022-07-29T10:21:36.253Z,44.17
2022-07-29T10:23:10.395Z,44.33
2022-07-29T10:24:42.926Z,45.98
2022-07-29T10:26:16.031Z,46.41
2022-07-29T10:27:48.952Z,44.51
2022-07-29T10:29:21.488Z,43.13
2022-07-29T10:31:02.103Z,42.02
2022-07-29T10:32:37.185Z,42.83
2022-07-29T10:34:18.418Z,44.71
2022-07-29T10:36:02.342Z,42.77
2022-07-29T10:37:45.934Z,42.61
2022-07-29T10:39:45.205Z,43.00
2022-07-29T10:41:32.384Z,42.22
2022-07-29T10:43:24.856Z,42.00
2022-07-29T10:44:57.734Z,43.05
2022-07-29T10:46:37.247Z,42.91
2022-07-29T10:48:10.587Z,42.60
2022-07-29T10:49:57.606Z,44.43
2022-07-29T10:51:52.631Z,43.11
2022-07-29T10:53:25.685Z,43.57
2022-07-29T10:55:01.937Z,44.74
2022-07-29T10:56:35.347Z,44.39
2022-07-29T10:58:15.161Z,43.10
2022-07-29T10:59:53.295Z,43.45
2022-07-29T11:01:37.442Z,43.18
2022-07-29T11:03:12.396Z,44.92
2022-07-29T11:04:48.588Z,41.72
2022-07-29T11:06:26.416Z,44.69
2022-07-29T11:08:20.447Z,44.26
2022-07-29T11:10:11.959Z,42.14
2022-07-29T11:11:51.355Z,41.62
2022-07-29T11:13:53.393Z,41.52
2022-07-29T11:15:28.599Z,42.12
2022-07-29T11:17:08.556Z,41.20
2022-07-29T11:19:13.254Z,42.00
2022-07-29T11:20:49.843Z,41.06
2022-07-29T11:22:46.066Z,40.12
2022-07-29T11:24:35.946Z,40.86
2022-07-29T11:26:12.760Z,39.85
2022-07-29T11:27:48.370Z,40.37
2022-07-29T11:29:23.694Z,40.22
2022-07-29T11:30:56.746Z,39.85
2022-07-29T11:32:40.255Z,42.33
2022-07-29T11:34:31.607Z,40.65
2022-07-29T11:36:16.792Z,42.10
2022-07-29T11:38:38.692Z,41.81
2022-07-29T11:40:15.652Z,40.00
2022-07-29T11:41:48.185Z,40.34
2022-07-29T11:43:53.509Z,41.23
2022-07-29T11:47:07.231Z,40.19
2022-07-29T11:48:43.586Z,39.86
2022-07-29T11:50:33.528Z,39.31
2022-07-29T11:52:07.211Z,39.31
2022-07-29T11:53:48.764Z,39.60
2022-07-29T11:55:32.600Z,40.71
2022-07-29T11:57:08.683Z,39.75
2022-07-29T11:58:41.318Z,40.39
2022-07-29T12:00:16.282Z,39.83
2022-07-29T12:02:12.006Z,37.81
2022-07-29T12:04:04.763Z,39.11
2022-07-29T12:05:48.070Z,38.93
2022-07-29T12:07:33.694Z,37.84
2022-07-29T12:09:11.237Z,39.24
2022-07-29T12:10:49.278Z,39.29
2022-07-29T12:12:22.387Z,40.08
2022-07-29T12:13:56.996Z,40.35
2022-07-29T12:15:39.495Z,39.85
2022-07-29T12:17:30.513Z,39.34
2022-07-29T12:19:06.077Z,37.82
2022-07-29T12:20:38.531Z,38.94
2022-07-29T12:22:11.113Z,36.36
2022-07-29T12:24:01.887Z,37.76
2022-07-29T12:25:38.541Z,37.28
2022-07-29T12:27:10.891Z,38.50
2022-07-29T12:28:44.712Z,38.02
2022-07-29T12:30:19.611Z,37.59
2022-07-29T12:31:57.736Z,38.05
2022-07-29T12:33:31.295Z,37.90
2022-07-29T12:35:06.775Z,37.36
2022-07-29T12:36:39.468Z,37.92
2022-07-29T12:38:13.805Z,37.62
2022-07-29T12:39:46.769Z,37.15
2022-07-29T12:41:19.250Z,35.54
2022-07-29T12:43:11.649Z,36.37
2022-07-29T12:44:51.536Z,36.53
2022-07-29T12:46:24.211Z,36.85
2022-07-29T12:47:56.478Z,36.45
2022-07-29T12:49:28.789Z,36.90
2022-07-29T12:51:03.594Z,36.61
2022-07-29T12:52:36.690Z,35.41
2022-07-29T12:54:17.383Z,34.70
2022-07-29T12:55:55.969Z,35.38
2022-07-29T12:57:29.104Z,38.51
2022-07-29T12:59:01.520Z,36.78
2022-07-29T13:00:34.021Z,37.71
2022-07-29T13:02:06.435Z,35.34
2022-07-29T13:03:59.797Z,36.46
2022-07-29T13:05:49.094Z,34.14
2022-07-29T13:07:55.416Z,34.36
2022-07-29T13:09:23.925Z,34.21
2022-07-29T13:10:56.328Z,35.13
2022-07-29T13:12:29.507Z,34.84
2022-07-29T13:15:41.547Z,35.73
2022-07-29T13:17:17.114Z,34.80
2022-07-29T13:18:49.740Z,34.96
2022-07-29T13:20:26.222Z,34.92
2022-07-29T13:21:59.080Z,34.96
2022-07-29T13:23:31.665Z,34.16
2022-07-29T13:25:11.316Z,36.12
2022-07-29T13:26:43.470Z,35.90
2022-07-29T13:28:15.990Z,35.14
2022-07-29T13:29:48.617Z,35.72
2022-07-29T13:31:21.061Z,34.41
2022-07-29T13:32:54.421Z,35.44
2022-07-29T13:34:27.011Z,33.78
2022-07-29T13:35:59.237Z,35.40
2022-07-29T13:37:32.026Z,35.50
2022-07-29T13:39:05.213Z,36.36
2022-07-29T13:40:38.090Z,36.18
2022-07-29T13:42:11.166Z,35.90
2022-07-29T13:43:43.494Z,35.91
2022-07-29T13:45:15.788Z,36.22
2022-07-29T13:46:48.150Z,36.17
2022-07-29T13:48:21.027Z,36.57
2022-07-29T13:49:53.254Z,35.80
2022-07-29T13:51:25.515Z,35.41
2022-07-29T13:52:57.817Z,35.12
2022-07-29T13:54:30.308Z,35.52
2022-07-29T13:56:02.630Z,35.33
2022-07-29T13:57:35.033Z,35.23
2022-07-29T13:59:07.447Z,34.86
2022-07-29T14:00:39.996Z,35.27
2022-07-29T14:02:13.639Z,34.53
2022-07-29T14:03:48.076Z,35.56
2022-07-29T14:05:20.678Z,35.78
2022-07-29T14:06:53.192Z,36.07
2022-07-29T14:08:25.608Z,35.92
2022-07-29T14:09:58.377Z,35.38
2022-07-29T14:11:30.774Z,35.58
2022-07-29T14:13:03.442Z,35.86
2022-07-29T14:14:37.840Z,36.75
2022-07-29T14:16:10.458Z,37.34
2022-07-29T14:17:42.886Z,36.91
2022-07-29T14:19:15.320Z,37.51
2022-07-29T14:20:47.865Z,37.94
2022-07-29T14:22:20.624Z,38.01
2022-07-29T14:23:57.682Z,38.28
2022-07-29T14:25:30.344Z,37.89
2022-07-29T14:27:02.702Z,38.15
2022-07-29T14:28:36.925Z,38.45
2022-07-29T14:30:12.925Z,38.65
2022-07-29T14:31:45.414Z,38.84
2022-07-29T14:33:17.849Z,39.73
2022-07-29T14:34:50.287Z,40.49
2022-07-29T14:36:25.507Z,40.01
2022-07-29T14:37:58.713Z,41.48
2022-07-29T14:39:31.912Z,42.84
2022-07-29T14:41:05.104Z,42.22
2022-07-29T14:42:38.446Z,42.24
2022-07-29T14:44:11.170Z,42.53
2022-07-29T14:45:43.417Z,42.79
2022-07-29T14:47:15.881Z,45.16
2022-07-29T14:48:48.323Z,49.91
2022-07-29T14:50:23.289Z,54.79
2022-07-29T14:52:04.992Z,55.08
2022-07-29T14:53:37.443Z,57.26
2022-07-29T14:55:16.507Z,58.63
2022-07-29T14:56:56.652Z,61.65
2022-07-29T14:58:28.988Z,60.07
2022-07-29T15:00:01.307Z,56.94
2022-07-29T15:01:33.831Z,58.50
2022-07-29T15:03:06.902Z,60.18
2022-07-29T15:04:43.870Z,59.99
2022-07-29T15:06:16.189Z,61.73
2022-07-29T15:07:48.495Z,61.67
2022-07-29T15:09:20.824Z,61.83
2022-07-29T15:10:53.248Z,62.53
2022-07-29T15:12:25.350Z,62.86
2022-07-29T15:13:57.697Z,62.50
2022-07-29T15:15:30.213Z,64.17
2022-07-29T15:17:02.578Z,64.49
2022-07-29T15:18:39.117Z,64.73
2022-07-29T15:20:13.156Z,65.55
2022-07-29T15:21:59.547Z,66.00
2022-07-29T15:23:32.415Z,67.75
2022-07-29T15:25:05.095Z,68.52
2022-07-29T15:26:37.567Z,69.08
2022-07-29T15:28:10.355Z,68.30
2022-07-29T15:29:43.554Z,67.84
2022-07-29T15:31:15.806Z,71.65
2022-07-29T15:32:48.308Z,72.89
2022-07-29T15:34:28.537Z,74.99
2022-07-29T15:36:01.189Z,75.43
2022-07-29T15:37:49.004Z,76.60
2022-07-29T15:39:22.904Z,77.89
2022-07-29T15:40:55.261Z,78.41
2022-07-29T15:42:27.685Z,77.72
2022-07-29T15:44:00.270Z,77.79
2022-07-29T15:46:03.694Z,77.68
2022-07-29T15:47:39.119Z,78.29
2022-07-29T15:49:11.539Z,77.22
2022-07-29T15:50:47.205Z,77.26
2022-07-29T15:52:26.107Z,81.22
2022-07-29T15:53:58.893Z,70.66
2022-07-29T15:55:31.261Z,70.67
2022-07-29T15:57:05.545Z,70.41
2022-07-29T15:58:37.976Z,71.67
2022-07-29T16:00:11.911Z,73.07
2022-07-29T16:01:44.347Z,72.66
2022-07-29T16:03:17.007Z,71.15
2022-07-29T16:04:49.617Z,69.90
2022-07-29T16:06:22.617Z,71.64
2022-07-29T16:07:54.989Z,74.05
2022-07-29T16:09:27.391Z,74.22
2022-07-29T16:10:59.740Z,75.54
2022-07-29T16:12:32.106Z,76.34
2022-07-29T16:14:04.972Z,74.75
2022-07-29T16:15:37.377Z,74.28
2022-07-29T16:17:09.758Z,73.63
2022-07-29T16:18:47.250Z,73.70
2022-07-29T16:20:21.234Z,74.51
2022-07-29T16:21:59.542Z,76.00
2022-07-29T16:23:32.773Z,76.00
2022-07-29T16:25:05.701Z,77.20
2022-07-29T16:26:38.136Z,76.78
2022-07-29T16:28:11.736Z,77.25
2022-07-29T16:29:44.346Z,77.41
2022-07-29T16:31:16.865Z,77.82
2022-07-29T16:32:49.564Z,78.37
2022-07-29T16:34:21.915Z,78.70
2022-07-29T16:35:54.246Z,78.86
2022-07-29T16:37:28.724Z,79.12
2022-07-29T16:39:01.331Z,78.84
2022-07-29T16:40:33.941Z,78.64
2022-07-29T16:42:06.613Z,78.90
2022-07-29T16:43:39.342Z,79.64
2022-07-29T16:45:11.980Z,79.44
2022-07-29T16:46:45.624Z,80.24
2022-07-29T16:48:18.788Z,80.24
2022-07-29T16:49:51.526Z,79.92
2022-07-29T16:51:24.227Z,79.69
2022-07-29T16:52:56.895Z,79.64
2022-07-29T16:54:29.378Z,80.40
2022-07-29T16:56:02.366Z,80.72
2022-07-29T16:57:34.797Z,80.39
2022-07-29T16:59:07.110Z,80.84
2022-07-29T17:00:39.562Z,80.69
2022-07-29T17:02:12.822Z,80.58
2022-07-29T17:04:11.268Z,80.47
2022-07-29T17:05:52.751Z,80.71
2022-07-29T17:07:26.986Z,80.46
2022-07-29T17:08:59.387Z,81.06
2022-07-29T17:10:31.713Z,80.61
2022-07-29T17:12:04.333Z,80.92
2022-07-29T17:13:36.630Z,81.09
2022-07-29T17:15:11.586Z,80.83
2022-07-29T17:16:44.104Z,81.14
2022-07-29T17:18:33.290Z,81.20
2022-07-29T17:20:06.475Z,81.06
2022-07-29T17:21:38.629Z,80.94
2022-07-29T17:23:21.115Z,81.38
2022-07-29T17:24:53.811Z,80.57
2022-07-29T17:26:28.230Z,80.40
2022-07-29T17:28:01.305Z,79.92
2022-07-29T17:29:35.440Z,80.25
2022-07-29T17:31:08.011Z,80.53
2022-07-29T17:32:41.231Z,80.53
2022-07-29T17:34:13.455Z,80.67
2022-07-29T17:36:04.777Z,81.03
2022-07-29T17:37:37.388Z,80.60
2022-07-29T17:39:11.822Z,81.13
2022-07-29T17:40:44.250Z,81.34
2022-07-29T17:42:16.735Z,81.46
2022-07-29T17:43:50.134Z,81.83
2022-07-29T17:45:22.525Z,82.11
2022-07-29T17:46:54.937Z,82.96
2022-07-29T17:48:27.554Z,82.98
2022-07-29T17:49:59.985Z,83.03
2022-07-29T17:51:32.462Z,82.78
2022-07-29T17:53:04.907Z,83.05
2022-07-29T17:54:49.711Z,83.77
2022-07-29T17:56:22.482Z,83.03
2022-07-29T17:57:59.727Z,82.73
2022-07-29T17:59:32.256Z,82.16
2022-07-29T18:01:04.949Z,82.34
2022-07-29T18:02:37.975Z,82.61
2022-07-29T18:04:10.385Z,82.46
2022-07-29T18:05:42.908Z,82.74
2022-07-29T18:07:15.477Z,83.07
2022-07-29T18:08:48.261Z,83.34
2022-07-29T18:10:20.642Z,82.79
2022-07-29T18:11:53.161Z,83.07
2022-07-29T18:13:26.863Z,83.48
2022-07-29T18:14:59.154Z,83.42
2022-07-29T18:16:31.555Z,83.10
2022-07-29T18:18:03.970Z,83.08
2022-07-29T18:19:36.227Z,83.13
2022-07-29T18:21:08.611Z,83.42
2022-07-29T18:22:41.107Z,83.35
2022-07-29T18:24:13.425Z,83.68
2022-07-29T18:25:45.856Z,83.78
2022-07-29T18:27:18.088Z,83.85
2022-07-29T18:28:50.391Z,84.24
2022-07-29T18:30:22.814Z,84.32
2022-07-29T18:31:55.137Z,84.43
2022-07-29T18:33:28.312Z,84.67
2022-07-29T18:35:03.061Z,84.69
2022-07-29T18:36:35.423Z,84.79
2022-07-29T18:38:07.589Z,84.93
2022-07-29T18:39:40.077Z,85.08
2022-07-29T18:41:12.545Z,85.06
2022-07-29T18:42:45.012Z,85.09
2022-07-29T18:44:18.222Z,84.80
2022-07-29T18:45:51.279Z,84.27
2022-07-29T18:47:24.124Z,84.34
2022-07-29T18:49:04.554Z,83.71
2022-07-29T18:50:37.061Z,84.14
2022-07-29T18:52:09.478Z,83.98
2022-07-29T18:53:41.929Z,83.78
2022-07-29T18:55:14.506Z,83.58
2022-07-29T18:56:47.546Z,83.86
2022-07-29T18:58:19.803Z,83.70
2022-07-29T18:59:53.032Z,84.09
2022-07-29T19:01:25.234Z,84.27
2022-07-29T19:03:04.449Z,84.46
2022-07-29T19:04:36.876Z,84.34
2022-07-29T19:06:09.401Z,84.41
2022-07-29T19:07:43.815Z,84.30
2022-07-29T19:09:17.648Z,84.79
2022-07-29T19:10:49.899Z,84.57
2022-07-29T19:12:22.230Z,84.83
2022-07-29T19:13:54.857Z,84.75
2022-07-29T19:15:30.185Z,84.96
2022-07-29T19:17:03.200Z,84.91
2022-07-29T19:18:35.558Z,84.72
2022-07-29T19:20:08.525Z,84.64
2022-07-29T19:21:41.892Z,84.82
2022-07-29T19:23:14.395Z,85.21
2022-07-29T19:24:46.809Z,85.41
2022-07-29T19:26:20.984Z,85.04
2022-07-29T19:27:53.428Z,85.70
2022-07-29T19:29:27.055Z,85.71
2022-07-29T19:30:59.897Z,85.24
2022-07-29T19:32:32.194Z,85.69
2022-07-29T19:34:04.546Z,85.34
2022-07-29T19:35:37.378Z,85.50
2022-07-29T19:37:09.698Z,85.81
2022-07-29T21:48:18.791Z,86.85
2022-07-29T21:49:52.088Z,87.14
2022-07-29T21:51:24.044Z,87.06
2022-07-29T21:52:56.207Z,87.07
2022-07-29T21:54:28.373Z,86.95
2022-07-29T21:56:00.515Z,87.17
2022-07-29T21:57:33.007Z,86.69
2022-07-29T21:59:05.037Z,86.53
2022-07-29T22:00:42.693Z,86.68
2022-07-29T22:02:14.795Z,86.63
2022-07-29T22:03:46.899Z,86.36
2022-07-29T22:05:19.390Z,86.33
2022-07-29T22:06:51.406Z,86.30
2022-07-29T22:08:23.557Z,86.22
2022-07-29T22:09:55.734Z,86.38
2022-07-29T22:11:27.963Z,86.57
2022-07-29T22:13:01.118Z,86.11
2022-07-29T22:14:33.261Z,86.33
2022-07-29T22:16:05.642Z,86.02
2022-07-29T22:17:37.801Z,85.82
2022-07-29T22:19:09.882Z,85.63
2022-07-29T22:20:42.027Z,86.01
2022-07-29T22:22:14.155Z,85.92
2022-07-29T22:23:46.271Z,85.91
2022-07-29T22:25:18.402Z,85.67
2022-07-29T22:26:50.537Z,85.83
2022-07-29T22:28:22.594Z,85.64
2022-07-29T22:29:54.761Z,85.84
2022-07-29T22:31:26.861Z,85.85
2022-07-29T22:32:59.023Z,85.67
2022-07-29T22:34:37.116Z,86.02
2022-07-29T22:36:10.823Z,86.12
2022-07-29T22:37:42.882Z,86.59
2022-07-29T22:39:15.679Z,86.59
2022-07-29T22:40:50.580Z,86.80